sensor_id;sensor_type;location;lat;lon;timestamp;P1;durP1;ratioP1;P2;durP2;ratioP2
20711;SDS011;10517;50.742;4.224;2023-01-28T00:02:21;10.03;;;3.97;;
20711;SDS011;10517;50.742;4.224;2023-01-28T00:04:47;15.50;;;6.77;;
20711;SDS011;10517;50.742;4.224;2023-01-28T00:07:13;10.00;;;5.07;;
20711;SDS011;10517;50.742;4.224;2023-01-28T00:09:38;9.37;;;4.80;;
20711;SDS011;10517;50.742;4.224;2023-01-28T00:12:04;7.40;;;4.10;;
20711;SDS011;10517;50.742;4.224;2023-01-28T00:14:30;8.57;;;4.00;;
20711;SDS011;10517;50.742;4.224;2023-01-28T00:16:55;7.57;;;3.63;;
20711;SDS011;10517;50.742;4.224;2023-01-28T00:19:21;9.50;;;4.63;;
20711;SDS011;10517;50.742;4.224;2023-01-28T00:21:48;9.60;;;4.53;;
20711;SDS011;10517;50.742;4.224;2023-01-28T00:24:13;8.73;;;4.80;;
20711;SDS011;10517;50.742;4.224;2023-01-28T00:26:39;10.13;;;4.73;;
20711;SDS011;10517;50.742;4.224;2023-01-28T00:29:05;9.73;;;4.53;;
20711;SDS011;10517;50.742;4.224;2023-01-28T00:31:30;8.63;;;3.63;;
20711;SDS011;10517;50.742;4.224;2023-01-28T00:33:56;10.80;;;5.03;;
20711;SDS011;10517;50.742;4.224;2023-01-28T00:36:23;8.40;;;4.50;;
20711;SDS011;10517;50.742;4.224;2023-01-28T00:38:50;9.23;;;5.10;;
20711;SDS011;10517;50.742;4.224;2023-01-28T00:41:21;11.00;;;5.33;;
20711;SDS011;10517;50.742;4.224;2023-01-28T00:43:48;9.73;;;4.53;;
20711;SDS011;10517;50.742;4.224;2023-01-28T00:46:14;11.77;;;5.67;;
20711;SDS011;10517;50.742;4.224;2023-01-28T00:48:40;10.17;;;4.50;;
20711;SDS011;10517;50.742;4.224;2023-01-28T00:51:07;11.97;;;5.90;;
20711;SDS011;10517;50.742;4.224;2023-01-28T00:53:33;8.37;;;4.23;;
20711;SDS011;10517;50.742;4.224;2023-01-28T00:56:01;10.67;;;5.57;;
20711;SDS011;10517;50.742;4.224;2023-01-28T00:58:27;9.77;;;4.37;;
20711;SDS011;10517;50.742;4.224;2023-01-28T01:00:52;8.47;;;4.53;;
20711;SDS011;10517;50.742;4.224;2023-01-28T01:03:18;7.30;;;4.60;;
20711;SDS011;10517;50.742;4.224;2023-01-28T01:05:44;7.93;;;4.90;;
20711;SDS011;10517;50.742;4.224;2023-01-28T01:08:10;12.40;;;4.67;;
20711;SDS011;10517;50.742;4.224;2023-01-28T01:10:36;10.07;;;4.87;;
20711;SDS011;10517;50.742;4.224;2023-01-28T01:13:04;8.93;;;5.40;;
20711;SDS011;10517;50.742;4.224;2023-01-28T01:15:30;8.03;;;4.87;;
20711;SDS011;10517;50.742;4.224;2023-01-28T01:17:56;10.40;;;4.93;;
20711;SDS011;10517;50.742;4.224;2023-01-28T01:20:23;9.03;;;4.83;;
20711;SDS011;10517;50.742;4.224;2023-01-28T01:22:51;8.57;;;4.37;;
20711;SDS011;10517;50.742;4.224;2023-01-28T01:25:16;11.10;;;5.23;;
20711;SDS011;10517;50.742;4.224;2023-01-28T01:27:43;8.27;;;5.33;;
20711;SDS011;10517;50.742;4.224;2023-01-28T01:30:12;8.97;;;5.07;;
20711;SDS011;10517;50.742;4.224;2023-01-28T01:32:38;9.80;;;5.23;;
20711;SDS011;10517;50.742;4.224;2023-01-28T01:35:04;12.43;;;5.07;;
20711;SDS011;10517;50.742;4.224;2023-01-28T01:37:32;9.60;;;4.13;;
20711;SDS011;10517;50.742;4.224;2023-01-28T01:39:58;10.47;;;5.40;;
20711;SDS011;10517;50.742;4.224;2023-01-28T01:42:26;10.90;;;5.07;;
20711;SDS011;10517;50.742;4.224;2023-01-28T01:47:28;7.90;;;4.90;;
20711;SDS011;10517;50.742;4.224;2023-01-28T01:49:55;8.77;;;4.50;;
20711;SDS011;10517;50.742;4.224;2023-01-28T01:52:25;10.57;;;4.60;;
20711;SDS011;10517;50.742;4.224;2023-01-28T01:54:55;8.40;;;4.03;;
20711;SDS011;10517;50.742;4.224;2023-01-28T01:57:26;8.73;;;3.73;;
20711;SDS011;10517;50.742;4.224;2023-01-28T01:59:56;9.03;;;4.77;;
20711;SDS011;10517;50.742;4.224;2023-01-28T02:02:30;9.47;;;5.30;;
20711;SDS011;10517;50.742;4.224;2023-01-28T02:04:59;8.83;;;4.93;;
20711;SDS011;10517;50.742;4.224;2023-01-28T02:07:26;7.97;;;4.83;;
20711;SDS011;10517;50.742;4.224;2023-01-28T02:09:52;11.00;;;5.00;;
20711;SDS011;10517;50.742;4.224;2023-01-28T02:12:19;9.27;;;5.50;;
20711;SDS011;10517;50.742;4.224;2023-01-28T02:14:48;11.00;;;5.23;;
20711;SDS011;10517;50.742;4.224;2023-01-28T02:17:18;12.30;;;6.40;;
20711;SDS011;10517;50.742;4.224;2023-01-28T02:19:52;9.53;;;4.60;;
20711;SDS011;10517;50.742;4.224;2023-01-28T02:25:29;11.33;;;5.43;;
20711;SDS011;10517;50.742;4.224;2023-01-28T02:31:00;11.40;;;5.20;;
20711;SDS011;10517;50.742;4.224;2023-01-28T02:33:40;8.17;;;4.00;;
20711;SDS011;10517;50.742;4.224;2023-01-28T02:36:17;10.20;;;5.20;;
20711;SDS011;10517;50.742;4.224;2023-01-28T02:38:54;10.67;;;4.33;;
20711;SDS011;10517;50.742;4.224;2023-01-28T02:41:32;10.83;;;5.10;;
20711;SDS011;10517;50.742;4.224;2023-01-28T02:44:04;10.10;;;5.00;;
20711;SDS011;10517;50.742;4.224;2023-01-28T02:49:18;7.70;;;3.67;;
20711;SDS011;10517;50.742;4.224;2023-01-28T02:52:01;9.97;;;5.07;;
20711;SDS011;10517;50.742;4.224;2023-01-28T02:54:32;10.93;;;5.27;;
20711;SDS011;10517;50.742;4.224;2023-01-28T02:59:41;10.53;;;5.50;;
20711;SDS011;10517;50.742;4.224;2023-01-28T03:04:48;11.73;;;5.07;;
20711;SDS011;10517;50.742;4.224;2023-01-28T03:07:28;12.10;;;5.20;;
20711;SDS011;10517;50.742;4.224;2023-01-28T03:09:55;9.40;;;4.53;;
20711;SDS011;10517;50.742;4.224;2023-01-28T03:12:26;10.47;;;5.07;;
20711;SDS011;10517;50.742;4.224;2023-01-28T03:15:13;11.83;;;5.57;;
20711;SDS011;10517;50.742;4.224;2023-01-28T03:18:06;11.20;;;4.97;;
20711;SDS011;10517;50.742;4.224;2023-01-28T03:21:15;8.70;;;4.80;;
20711;SDS011;10517;50.742;4.224;2023-01-28T03:26:53;10.17;;;4.60;;
20711;SDS011;10517;50.742;4.224;2023-01-28T03:29:48;12.17;;;6.10;;
20711;SDS011;10517;50.742;4.224;2023-01-28T03:32:34;12.00;;;5.37;;
20711;SDS011;10517;50.742;4.224;2023-01-28T03:35:19;8.03;;;4.40;;
20711;SDS011;10517;50.742;4.224;2023-01-28T03:38:06;10.97;;;4.70;;
20711;SDS011;10517;50.742;4.224;2023-01-28T03:40:55;10.33;;;4.43;;
20711;SDS011;10517;50.742;4.224;2023-01-28T03:43:22;7.67;;;4.37;;
20711;SDS011;10517;50.742;4.224;2023-01-28T03:45:48;10.03;;;4.43;;
20711;SDS011;10517;50.742;4.224;2023-01-28T03:48:20;10.07;;;4.47;;
20711;SDS011;10517;50.742;4.224;2023-01-28T03:50:48;10.57;;;4.97;;
20711;SDS011;10517;50.742;4.224;2023-01-28T03:53:15;9.63;;;4.93;;
20711;SDS011;10517;50.742;4.224;2023-01-28T03:55:41;12.13;;;5.07;;
20711;SDS011;10517;50.742;4.224;2023-01-28T03:58:07;11.47;;;5.33;;
20711;SDS011;10517;50.742;4.224;2023-01-28T04:00:34;12.10;;;5.70;;
20711;SDS011;10517;50.742;4.224;2023-01-28T04:03:16;7.80;;;4.07;;
20711;SDS011;10517;50.742;4.224;2023-01-28T04:05:43;10.73;;;5.53;;
20711;SDS011;10517;50.742;4.224;2023-01-28T04:08:29;13.43;;;4.93;;
20711;SDS011;10517;50.742;4.224;2023-01-28T04:10:55;13.00;;;5.70;;
20711;SDS011;10517;50.742;4.224;2023-01-28T04:13:21;12.43;;;5.10;;
20711;SDS011;10517;50.742;4.224;2023-01-28T04:15:47;7.93;;;3.97;;
20711;SDS011;10517;50.742;4.224;2023-01-28T04:18:13;10.63;;;5.50;;
20711;SDS011;10517;50.742;4.224;2023-01-28T04:20:38;9.50;;;4.13;;
20711;SDS011;10517;50.742;4.224;2023-01-28T04:23:05;12.07;;;5.93;;
20711;SDS011;10517;50.742;4.224;2023-01-28T04:25:32;12.07;;;5.43;;
20711;SDS011;10517;50.742;4.224;2023-01-28T04:27:57;12.53;;;5.17;;
20711;SDS011;10517;50.742;4.224;2023-01-28T04:30:23;10.70;;;4.97;;
20711;SDS011;10517;50.742;4.224;2023-01-28T04:32:49;12.63;;;5.80;;
20711;SDS011;10517;50.742;4.224;2023-01-28T04:35:15;12.23;;;5.10;;
20711;SDS011;10517;50.742;4.224;2023-01-28T04:37:41;10.83;;;4.77;;
20711;SDS011;10517;50.742;4.224;2023-01-28T04:40:08;7.60;;;4.43;;
20711;SDS011;10517;50.742;4.224;2023-01-28T04:42:34;14.00;;;5.70;;
20711;SDS011;10517;50.742;4.224;2023-01-28T04:45:00;10.73;;;5.30;;
20711;SDS011;10517;50.742;4.224;2023-01-28T04:47:25;13.17;;;6.17;;
20711;SDS011;10517;50.742;4.224;2023-01-28T04:49:51;12.20;;;5.50;;
20711;SDS011;10517;50.742;4.224;2023-01-28T04:52:16;10.93;;;5.40;;
20711;SDS011;10517;50.742;4.224;2023-01-28T04:54:42;14.00;;;5.43;;
20711;SDS011;10517;50.742;4.224;2023-01-28T04:57:08;14.30;;;6.70;;
20711;SDS011;10517;50.742;4.224;2023-01-28T04:59:33;14.33;;;6.47;;
20711;SDS011;10517;50.742;4.224;2023-01-28T05:01:59;11.27;;;5.00;;
20711;SDS011;10517;50.742;4.224;2023-01-28T05:04:24;13.23;;;6.03;;
20711;SDS011;10517;50.742;4.224;2023-01-28T05:06:50;13.83;;;5.67;;
20711;SDS011;10517;50.742;4.224;2023-01-28T05:09:15;11.93;;;5.10;;
20711;SDS011;10517;50.742;4.224;2023-01-28T05:11:41;10.57;;;4.20;;
20711;SDS011;10517;50.742;4.224;2023-01-28T05:14:07;11.93;;;5.13;;
20711;SDS011;10517;50.742;4.224;2023-01-28T05:16:32;13.43;;;5.43;;
20711;SDS011;10517;50.742;4.224;2023-01-28T05:18:59;11.17;;;5.27;;
20711;SDS011;10517;50.742;4.224;2023-01-28T05:21:25;10.90;;;4.97;;
20711;SDS011;10517;50.742;4.224;2023-01-28T05:23:52;11.43;;;6.03;;
20711;SDS011;10517;50.742;4.224;2023-01-28T05:26:18;15.13;;;5.83;;
20711;SDS011;10517;50.742;4.224;2023-01-28T05:28:44;10.10;;;4.53;;
20711;SDS011;10517;50.742;4.224;2023-01-28T05:31:09;9.23;;;4.67;;
20711;SDS011;10517;50.742;4.224;2023-01-28T05:33:35;8.73;;;4.87;;
20711;SDS011;10517;50.742;4.224;2023-01-28T05:36:01;10.90;;;4.37;;
20711;SDS011;10517;50.742;4.224;2023-01-28T05:38:27;8.60;;;4.60;;
20711;SDS011;10517;50.742;4.224;2023-01-28T05:40:52;12.47;;;4.90;;
20711;SDS011;10517;50.742;4.224;2023-01-28T05:43:18;9.43;;;5.37;;
20711;SDS011;10517;50.742;4.224;2023-01-28T05:45:43;8.57;;;4.43;;
20711;SDS011;10517;50.742;4.224;2023-01-28T05:48:09;8.23;;;4.20;;
20711;SDS011;10517;50.742;4.224;2023-01-28T05:50:35;8.50;;;4.20;;
20711;SDS011;10517;50.742;4.224;2023-01-28T05:53:03;10.13;;;4.03;;
20711;SDS011;10517;50.742;4.224;2023-01-28T05:55:30;11.10;;;4.97;;
20711;SDS011;10517;50.742;4.224;2023-01-28T05:57:55;11.67;;;4.53;;
20711;SDS011;10517;50.742;4.224;2023-01-28T06:00:21;8.10;;;4.77;;
20711;SDS011;10517;50.742;4.224;2023-01-28T06:02:46;10.67;;;4.57;;
20711;SDS011;10517;50.742;4.224;2023-01-28T06:05:12;10.77;;;4.47;;
20711;SDS011;10517;50.742;4.224;2023-01-28T06:07:37;10.57;;;5.07;;
20711;SDS011;10517;50.742;4.224;2023-01-28T06:10:03;10.53;;;4.60;;
20711;SDS011;10517;50.742;4.224;2023-01-28T06:12:29;9.37;;;4.40;;
20711;SDS011;10517;50.742;4.224;2023-01-28T06:14:55;8.87;;;3.83;;
20711;SDS011;10517;50.742;4.224;2023-01-28T06:17:20;9.07;;;4.60;;
20711;SDS011;10517;50.742;4.224;2023-01-28T06:19:46;9.93;;;5.13;;
20711;SDS011;10517;50.742;4.224;2023-01-28T06:22:11;8.47;;;4.60;;
20711;SDS011;10517;50.742;4.224;2023-01-28T06:24:37;8.33;;;4.00;;
20711;SDS011;10517;50.742;4.224;2023-01-28T06:27:03;7.00;;;4.73;;
20711;SDS011;10517;50.742;4.224;2023-01-28T06:29:28;8.93;;;4.67;;
20711;SDS011;10517;50.742;4.224;2023-01-28T06:31:54;8.93;;;4.23;;
20711;SDS011;10517;50.742;4.224;2023-01-28T06:34:19;11.07;;;4.20;;
20711;SDS011;10517;50.742;4.224;2023-01-28T06:36:45;10.17;;;3.97;;
20711;SDS011;10517;50.742;4.224;2023-01-28T06:39:10;7.73;;;3.57;;
20711;SDS011;10517;50.742;4.224;2023-01-28T06:41:36;12.57;;;5.20;;
20711;SDS011;10517;50.742;4.224;2023-01-28T06:44:02;10.57;;;4.57;;
20711;SDS011;10517;50.742;4.224;2023-01-28T06:46:27;7.47;;;4.13;;
20711;SDS011;10517;50.742;4.224;2023-01-28T06:48:53;8.33;;;3.83;;
20711;SDS011;10517;50.742;4.224;2023-01-28T06:51:19;8.20;;;4.20;;
20711;SDS011;10517;50.742;4.224;2023-01-28T06:53:44;9.27;;;4.63;;
20711;SDS011;10517;50.742;4.224;2023-01-28T06:56:10;9.13;;;4.30;;
20711;SDS011;10517;50.742;4.224;2023-01-28T06:58:35;9.87;;;4.63;;
20711;SDS011;10517;50.742;4.224;2023-01-28T07:01:01;6.40;;;3.43;;
20711;SDS011;10517;50.742;4.224;2023-01-28T07:03:27;10.97;;;4.77;;
20711;SDS011;10517;50.742;4.224;2023-01-28T07:05:53;6.93;;;3.43;;
20711;SDS011;10517;50.742;4.224;2023-01-28T07:08:19;7.07;;;3.53;;
20711;SDS011;10517;50.742;4.224;2023-01-28T07:10:44;8.17;;;3.87;;
20711;SDS011;10517;50.742;4.224;2023-01-28T07:13:10;9.20;;;4.63;;
20711;SDS011;10517;50.742;4.224;2023-01-28T07:15:36;7.13;;;4.50;;
20711;SDS011;10517;50.742;4.224;2023-01-28T07:18:01;10.47;;;4.40;;
20711;SDS011;10517;50.742;4.224;2023-01-28T07:20:27;9.95;;;5.70;;
20711;SDS011;10517;50.742;4.224;2023-01-28T07:22:52;8.47;;;4.60;;
20711;SDS011;10517;50.742;4.224;2023-01-28T07:25:18;8.70;;;3.93;;
20711;SDS011;10517;50.742;4.224;2023-01-28T07:27:51;10.50;;;4.80;;
20711;SDS011;10517;50.742;4.224;2023-01-28T07:30:17;7.90;;;4.73;;
20711;SDS011;10517;50.742;4.224;2023-01-28T07:32:45;7.33;;;3.47;;
20711;SDS011;10517;50.742;4.224;2023-01-28T07:35:11;8.40;;;4.37;;
20711;SDS011;10517;50.742;4.224;2023-01-28T07:37:37;6.87;;;3.90;;
20711;SDS011;10517;50.742;4.224;2023-01-28T07:40:03;8.03;;;3.87;;
20711;SDS011;10517;50.742;4.224;2023-01-28T07:42:29;8.67;;;4.07;;
20711;SDS011;10517;50.742;4.224;2023-01-28T07:44:55;6.33;;;3.77;;
20711;SDS011;10517;50.742;4.224;2023-01-28T07:47:21;8.87;;;5.03;;
20711;SDS011;10517;50.742;4.224;2023-01-28T07:49:46;5.00;;;3.30;;
20711;SDS011;10517;50.742;4.224;2023-01-28T07:52:12;8.63;;;4.50;;
20711;SDS011;10517;50.742;4.224;2023-01-28T07:54:38;9.93;;;5.03;;
20711;SDS011;10517;50.742;4.224;2023-01-28T07:57:07;7.13;;;4.40;;
20711;SDS011;10517;50.742;4.224;2023-01-28T07:59:35;8.10;;;3.67;;
20711;SDS011;10517;50.742;4.224;2023-01-28T08:02:01;7.43;;;4.03;;
20711;SDS011;10517;50.742;4.224;2023-01-28T08:04:27;6.83;;;3.60;;
20711;SDS011;10517;50.742;4.224;2023-01-28T08:06:53;5.60;;;3.47;;
20711;SDS011;10517;50.742;4.224;2023-01-28T08:09:22;7.63;;;4.30;;
20711;SDS011;10517;50.742;4.224;2023-01-28T08:11:47;9.97;;;5.10;;
20711;SDS011;10517;50.742;4.224;2023-01-28T08:14:13;9.50;;;4.40;;
20711;SDS011;10517;50.742;4.224;2023-01-28T08:16:39;8.57;;;4.33;;
20711;SDS011;10517;50.742;4.224;2023-01-28T08:19:04;10.63;;;4.23;;
20711;SDS011;10517;50.742;4.224;2023-01-28T08:21:30;8.60;;;4.43;;
20711;SDS011;10517;50.742;4.224;2023-01-28T08:23:56;7.93;;;4.10;;
20711;SDS011;10517;50.742;4.224;2023-01-28T08:26:21;9.90;;;5.00;;
20711;SDS011;10517;50.742;4.224;2023-01-28T08:28:47;10.47;;;4.57;;
20711;SDS011;10517;50.742;4.224;2023-01-28T08:31:12;8.20;;;4.30;;
20711;SDS011;10517;50.742;4.224;2023-01-28T08:33:38;12.37;;;4.70;;
20711;SDS011;10517;50.742;4.224;2023-01-28T08:36:04;11.27;;;5.13;;
20711;SDS011;10517;50.742;4.224;2023-01-28T08:38:30;11.20;;;4.83;;
20711;SDS011;10517;50.742;4.224;2023-01-28T08:40:56;9.33;;;4.17;;
20711;SDS011;10517;50.742;4.224;2023-01-28T08:43:22;10.90;;;5.17;;
20711;SDS011;10517;50.742;4.224;2023-01-28T08:45:48;9.03;;;4.40;;
20711;SDS011;10517;50.742;4.224;2023-01-28T08:48:15;11.13;;;4.47;;
20711;SDS011;10517;50.742;4.224;2023-01-28T08:50:42;8.70;;;4.47;;
20711;SDS011;10517;50.742;4.224;2023-01-28T08:53:12;10.93;;;4.77;;
20711;SDS011;10517;50.742;4.224;2023-01-28T08:55:39;11.83;;;5.10;;
20711;SDS011;10517;50.742;4.224;2023-01-28T08:58:06;9.17;;;5.17;;
20711;SDS011;10517;50.742;4.224;2023-01-28T09:00:35;12.20;;;6.47;;
20711;SDS011;10517;50.742;4.224;2023-01-28T09:03:00;8.00;;;4.17;;
20711;SDS011;10517;50.742;4.224;2023-01-28T09:05:26;12.10;;;5.10;;
20711;SDS011;10517;50.742;4.224;2023-01-28T09:07:52;12.63;;;5.60;;
20711;SDS011;10517;50.742;4.224;2023-01-28T09:10:18;13.47;;;5.77;;
20711;SDS011;10517;50.742;4.224;2023-01-28T09:12:46;13.23;;;5.07;;
20711;SDS011;10517;50.742;4.224;2023-01-28T09:15:12;10.27;;;4.97;;
20711;SDS011;10517;50.742;4.224;2023-01-28T09:17:38;11.30;;;5.77;;
20711;SDS011;10517;50.742;4.224;2023-01-28T09:20:04;11.80;;;5.20;;
20711;SDS011;10517;50.742;4.224;2023-01-28T09:22:31;10.40;;;5.53;;
20711;SDS011;10517;50.742;4.224;2023-01-28T09:24:57;9.67;;;5.03;;
20711;SDS011;10517;50.742;4.224;2023-01-28T09:27:22;13.77;;;5.53;;
20711;SDS011;10517;50.742;4.224;2023-01-28T09:29:48;11.17;;;4.97;;
20711;SDS011;10517;50.742;4.224;2023-01-28T09:32:13;10.23;;;5.37;;
20711;SDS011;10517;50.742;4.224;2023-01-28T09:34:39;10.73;;;4.33;;
20711;SDS011;10517;50.742;4.224;2023-01-28T09:37:05;13.97;;;5.97;;
20711;SDS011;10517;50.742;4.224;2023-01-28T09:39:30;11.77;;;5.40;;
20711;SDS011;10517;50.742;4.224;2023-01-28T09:44:44;10.37;;;5.57;;
20711;SDS011;10517;50.742;4.224;2023-01-28T09:47:37;10.53;;;5.27;;
20711;SDS011;10517;50.742;4.224;2023-01-28T09:50:31;10.33;;;5.00;;
20711;SDS011;10517;50.742;4.224;2023-01-28T09:52:55;11.33;;;5.63;;
20711;SDS011;10517;50.742;4.224;2023-01-28T09:55:30;17.00;;;6.57;;
20711;SDS011;10517;50.742;4.224;2023-01-28T09:57:59;13.13;;;5.17;;
20711;SDS011;10517;50.742;4.224;2023-01-28T10:00:28;13.77;;;5.63;;
20711;SDS011;10517;50.742;4.224;2023-01-28T10:05:45;11.33;;;6.10;;
20711;SDS011;10517;50.742;4.224;2023-01-28T10:08:25;10.10;;;5.53;;
20711;SDS011;10517;50.742;4.224;2023-01-28T10:16:37;11.27;;;5.07;;
20711;SDS011;10517;50.742;4.224;2023-01-28T10:19:09;10.90;;;5.33;;
20711;SDS011;10517;50.742;4.224;2023-01-28T10:21:42;12.03;;;4.90;;
20711;SDS011;10517;50.742;4.224;2023-01-28T10:24:17;17.10;;;7.00;;
20711;SDS011;10517;50.742;4.224;2023-01-28T10:26:50;12.93;;;6.27;;
20711;SDS011;10517;50.742;4.224;2023-01-28T10:29:17;11.67;;;5.00;;
20711;SDS011;10517;50.742;4.224;2023-01-28T10:31:52;16.77;;;6.63;;
20711;SDS011;10517;50.742;4.224;2023-01-28T10:34:20;15.63;;;7.13;;
20711;SDS011;10517;50.742;4.224;2023-01-28T10:36:46;14.10;;;6.70;;
20711;SDS011;10517;50.742;4.224;2023-01-28T10:39:14;12.70;;;6.50;;
20711;SDS011;10517;50.742;4.224;2023-01-28T10:41:40;14.10;;;7.63;;
20711;SDS011;10517;50.742;4.224;2023-01-28T10:44:12;17.77;;;8.60;;
20711;SDS011;10517;50.742;4.224;2023-01-28T10:46:51;17.00;;;7.93;;
20711;SDS011;10517;50.742;4.224;2023-01-28T10:49:23;15.03;;;7.10;;
20711;SDS011;10517;50.742;4.224;2023-01-28T10:51:51;17.27;;;7.07;;
20711;SDS011;10517;50.742;4.224;2023-01-28T10:54:18;12.27;;;6.63;;
20711;SDS011;10517;50.742;4.224;2023-01-28T10:56:49;13.40;;;6.47;;
20711;SDS011;10517;50.742;4.224;2023-01-28T10:59:24;7.30;;;4.20;;
20711;SDS011;10517;50.742;4.224;2023-01-28T11:09:28;13.40;;;7.07;;
20711;SDS011;10517;50.742;4.224;2023-01-28T11:12:08;14.07;;;5.50;;
20711;SDS011;10517;50.742;4.224;2023-01-28T11:15:00;12.60;;;6.27;;
20711;SDS011;10517;50.742;4.224;2023-01-28T11:17:36;10.93;;;5.40;;
20711;SDS011;10517;50.742;4.224;2023-01-28T11:20:10;11.33;;;5.53;;
20711;SDS011;10517;50.742;4.224;2023-01-28T11:22:47;11.77;;;5.30;;
20711;SDS011;10517;50.742;4.224;2023-01-28T11:25:18;9.83;;;5.23;;
20711;SDS011;10517;50.742;4.224;2023-01-28T11:27:48;13.87;;;6.67;;
20711;SDS011;10517;50.742;4.224;2023-01-28T11:30:37;16.37;;;6.33;;
20711;SDS011;10517;50.742;4.224;2023-01-28T11:33:06;10.93;;;4.97;;
20711;SDS011;10517;50.742;4.224;2023-01-28T11:35:40;13.27;;;6.33;;
20711;SDS011;10517;50.742;4.224;2023-01-28T11:38:16;16.57;;;7.10;;
20711;SDS011;10517;50.742;4.224;2023-01-28T11:40:51;10.30;;;5.73;;
20711;SDS011;10517;50.742;4.224;2023-01-28T11:43:19;10.83;;;5.33;;
20711;SDS011;10517;50.742;4.224;2023-01-28T11:45:54;15.03;;;6.43;;
20711;SDS011;10517;50.742;4.224;2023-01-28T11:48:44;11.40;;;4.77;;
20711;SDS011;10517;50.742;4.224;2023-01-28T12:08:11;10.63;;;5.97;;
20711;SDS011;10517;50.742;4.224;2023-01-28T12:10:53;16.13;;;6.30;;
20711;SDS011;10517;50.742;4.224;2023-01-28T12:13:45;13.90;;;6.27;;
20711;SDS011;10517;50.742;4.224;2023-01-28T12:24:17;9.20;;;5.00;;
20711;SDS011;10517;50.742;4.224;2023-01-28T12:27:07;10.27;;;5.17;;
20711;SDS011;10517;50.742;4.224;2023-01-28T12:49:04;9.00;;;4.37;;
20711;SDS011;10517;50.742;4.224;2023-01-28T12:54:39;8.77;;;4.57;;
20711;SDS011;10517;50.742;4.224;2023-01-28T12:57:20;9.23;;;4.73;;
20711;SDS011;10517;50.742;4.224;2023-01-28T12:59:51;8.87;;;5.13;;
20711;SDS011;10517;50.742;4.224;2023-01-28T13:02:45;9.20;;;5.47;;
20711;SDS011;10517;50.742;4.224;2023-01-28T13:05:20;10.67;;;5.30;;
20711;SDS011;10517;50.742;4.224;2023-01-28T13:07:51;13.53;;;5.50;;
20711;SDS011;10517;50.742;4.224;2023-01-28T13:10:26;13.93;;;5.13;;
20711;SDS011;10517;50.742;4.224;2023-01-28T13:13:01;14.50;;;5.63;;
20711;SDS011;10517;50.742;4.224;2023-01-28T13:15:28;14.50;;;6.53;;
20711;SDS011;10517;50.742;4.224;2023-01-28T13:18:04;11.97;;;5.40;;
20711;SDS011;10517;50.742;4.224;2023-01-28T13:23:04;12.77;;;5.37;;
20711;SDS011;10517;50.742;4.224;2023-01-28T13:25:49;9.67;;;4.73;;
20711;SDS011;10517;50.742;4.224;2023-01-28T13:28:30;10.27;;;5.50;;
20711;SDS011;10517;50.742;4.224;2023-01-28T13:31:03;10.30;;;5.47;;
20711;SDS011;10517;50.742;4.224;2023-01-28T13:33:37;10.87;;;5.27;;
20711;SDS011;10517;50.742;4.224;2023-01-28T13:36:50;7.70;;;4.13;;
20711;SDS011;10517;50.742;4.224;2023-01-28T13:41:36;11.60;;;6.33;;
20711;SDS011;10517;50.742;4.224;2023-01-28T13:44:03;10.80;;;5.23;;
20711;SDS011;10517;50.742;4.224;2023-01-28T13:46:54;10.07;;;5.97;;
20711;SDS011;10517;50.742;4.224;2023-01-28T13:49:47;13.80;;;5.70;;
20711;SDS011;10517;50.742;4.224;2023-01-28T13:52:21;11.57;;;6.13;;
20711;SDS011;10517;50.742;4.224;2023-01-28T14:00:18;10.57;;;4.97;;
20711;SDS011;10517;50.742;4.224;2023-01-28T14:16:55;10.23;;;5.77;;
20711;SDS011;10517;50.742;4.224;2023-01-28T14:19:26;11.23;;;5.87;;
20711;SDS011;10517;50.742;4.224;2023-01-28T14:21:55;16.17;;;6.80;;
20711;SDS011;10517;50.742;4.224;2023-01-28T14:24:21;11.03;;;6.10;;
20711;SDS011;10517;50.742;4.224;2023-01-28T14:26:56;11.40;;;5.37;;
20711;SDS011;10517;50.742;4.224;2023-01-28T14:32:33;12.27;;;5.70;;
20711;SDS011;10517;50.742;4.224;2023-01-28T14:35:00;11.33;;;6.60;;
20711;SDS011;10517;50.742;4.224;2023-01-28T14:37:33;10.03;;;5.17;;
20711;SDS011;10517;50.742;4.224;2023-01-28T14:40:00;11.60;;;6.23;;
20711;SDS011;10517;50.742;4.224;2023-01-28T14:42:29;9.60;;;5.03;;
20711;SDS011;10517;50.742;4.224;2023-01-28T14:45:04;12.83;;;5.70;;
20711;SDS011;10517;50.742;4.224;2023-01-28T14:50:16;10.53;;;5.83;;
20711;SDS011;10517;50.742;4.224;2023-01-28T14:58:57;10.30;;;6.00;;
20711;SDS011;10517;50.742;4.224;2023-01-28T15:01:27;11.57;;;5.40;;
20711;SDS011;10517;50.742;4.224;2023-01-28T15:03:54;12.50;;;5.93;;
20711;SDS011;10517;50.742;4.224;2023-01-28T15:06:24;14.23;;;6.07;;
20711;SDS011;10517;50.742;4.224;2023-01-28T15:09:03;11.47;;;5.13;;
20711;SDS011;10517;50.742;4.224;2023-01-28T15:11:31;8.77;;;5.40;;
20711;SDS011;10517;50.742;4.224;2023-01-28T15:13:57;9.80;;;5.20;;
20711;SDS011;10517;50.742;4.224;2023-01-28T15:16:24;11.73;;;6.23;;
20711;SDS011;10517;50.742;4.224;2023-01-28T15:18:56;9.97;;;5.60;;
20711;SDS011;10517;50.742;4.224;2023-01-28T15:21:25;12.47;;;5.70;;
20711;SDS011;10517;50.742;4.224;2023-01-28T15:23:58;12.70;;;6.23;;
20711;SDS011;10517;50.742;4.224;2023-01-28T15:26:29;12.37;;;6.20;;
20711;SDS011;10517;50.742;4.224;2023-01-28T15:28:57;12.00;;;5.40;;
20711;SDS011;10517;50.742;4.224;2023-01-28T15:31:27;14.60;;;6.67;;
20711;SDS011;10517;50.742;4.224;2023-01-28T15:33:58;13.60;;;6.20;;
20711;SDS011;10517;50.742;4.224;2023-01-28T15:36:25;12.37;;;5.93;;
20711;SDS011;10517;50.742;4.224;2023-01-28T15:38:52;11.70;;;6.30;;
20711;SDS011;10517;50.742;4.224;2023-01-28T15:41:20;12.27;;;6.17;;
20711;SDS011;10517;50.742;4.224;2023-01-28T15:43:49;13.73;;;6.70;;
20711;SDS011;10517;50.742;4.224;2023-01-28T15:46:16;12.93;;;6.17;;
20711;SDS011;10517;50.742;4.224;2023-01-28T15:48:45;11.70;;;4.63;;
20711;SDS011;10517;50.742;4.224;2023-01-28T15:51:22;12.77;;;5.97;;
20711;SDS011;10517;50.742;4.224;2023-01-28T15:54:06;14.40;;;5.70;;
20711;SDS011;10517;50.742;4.224;2023-01-28T15:56:34;15.97;;;6.23;;
20711;SDS011;10517;50.742;4.224;2023-01-28T16:01:41;13.90;;;5.63;;
20711;SDS011;10517;50.742;4.224;2023-01-28T16:04:26;10.50;;;5.87;;
20711;SDS011;10517;50.742;4.224;2023-01-28T16:06:54;10.60;;;5.37;;
20711;SDS011;10517;50.742;4.224;2023-01-28T16:09:22;16.83;;;6.33;;
20711;SDS011;10517;50.742;4.224;2023-01-28T16:12:04;14.07;;;6.63;;
20711;SDS011;10517;50.742;4.224;2023-01-28T16:14:52;15.40;;;7.50;;
20711;SDS011;10517;50.742;4.224;2023-01-28T16:17:27;15.23;;;6.93;;
20711;SDS011;10517;50.742;4.224;2023-01-28T16:20:01;14.77;;;6.73;;
20711;SDS011;10517;50.742;4.224;2023-01-28T16:22:36;14.20;;;6.83;;
20711;SDS011;10517;50.742;4.224;2023-01-28T16:25:23;17.33;;;7.30;;
20711;SDS011;10517;50.742;4.224;2023-01-28T16:27:53;15.43;;;6.80;;
20711;SDS011;10517;50.742;4.224;2023-01-28T16:30:19;15.37;;;5.80;;
20711;SDS011;10517;50.742;4.224;2023-01-28T16:32:45;15.87;;;6.73;;
20711;SDS011;10517;50.742;4.224;2023-01-28T16:35:12;12.93;;;7.23;;
20711;SDS011;10517;50.742;4.224;2023-01-28T16:37:40;15.23;;;7.30;;
20711;SDS011;10517;50.742;4.224;2023-01-28T16:40:06;13.00;;;5.63;;
20711;SDS011;10517;50.742;4.224;2023-01-28T16:42:33;14.53;;;6.17;;
20711;SDS011;10517;50.742;4.224;2023-01-28T16:44:58;30.37;;;11.23;;
20711;SDS011;10517;50.742;4.224;2023-01-28T16:47:24;21.40;;;9.17;;
20711;SDS011;10517;50.742;4.224;2023-01-28T16:49:50;19.23;;;8.63;;
20711;SDS011;10517;50.742;4.224;2023-01-28T16:52:15;12.43;;;6.33;;
20711;SDS011;10517;50.742;4.224;2023-01-28T16:54:42;13.03;;;6.30;;
20711;SDS011;10517;50.742;4.224;2023-01-28T16:57:12;25.73;;;8.10;;
20711;SDS011;10517;50.742;4.224;2023-01-28T16:59:40;17.03;;;7.10;;